sensor_id;sensor_type;location;lat;lon;timestamp;P1;durP1;ratioP1;P2;durP2;ratioP2
1799;SDS011;919;48.274;12.292;2022-09-09T00:01:52;0.90;;;0.80;;
1799;SDS011;919;48.274;12.292;2022-09-09T00:04:26;5.17;;;0.80;;
1799;SDS011;919;48.274;12.292;2022-09-09T00:06:56;2.63;;;0.80;;
1799;SDS011;919;48.274;12.292;2022-09-09T00:09:29;1.00;;;1.00;;
1799;SDS011;919;48.274;12.292;2022-09-09T00:12:05;0.93;;;0.60;;
1799;SDS011;919;48.274;12.292;2022-09-09T00:14:39;1.10;;;0.83;;
1799;SDS011;919;48.274;12.292;2022-09-09T00:17:22;1.30;;;1.20;;
1799;SDS011;919;48.274;12.292;2022-09-09T00:19:56;0.60;;;0.60;;
1799;SDS011;919;48.274;12.292;2022-09-09T00:22:27;0.77;;;0.67;;
1799;SDS011;919;48.274;12.292;2022-09-09T00:24:58;0.47;;;0.47;;
1799;SDS011;919;48.274;12.292;2022-09-09T00:27:37;0.60;;;0.53;;
1799;SDS011;919;48.274;12.292;2022-09-09T00:30:14;0.70;;;0.70;;
1799;SDS011;919;48.274;12.292;2022-09-09T00:32:44;1.00;;;0.80;;
1799;SDS011;919;48.274;12.292;2022-09-09T00:35:17;0.87;;;0.70;;
1799;SDS011;919;48.274;12.292;2022-09-09T00:37:49;0.90;;;0.90;;
1799;SDS011;919;48.274;12.292;2022-09-09T00:40:22;0.80;;;0.80;;
1799;SDS011;919;48.274;12.292;2022-09-09T00:42:54;3.33;;;0.90;;
1799;SDS011;919;48.274;12.292;2022-09-09T00:45:48;0.77;;;0.70;;
1799;SDS011;919;48.274;12.292;2022-09-09T00:48:25;0.50;;;0.50;;
1799;SDS011;919;48.274;12.292;2022-09-09T00:50:59;0.60;;;0.60;;
1799;SDS011;919;48.274;12.292;2022-09-09T00:53:38;2.07;;;0.87;;
1799;SDS011;919;48.274;12.292;2022-09-09T00:56:20;0.60;;;0.60;;
1799;SDS011;919;48.274;12.292;2022-09-09T00:58:51;0.60;;;0.60;;
1799;SDS011;919;48.274;12.292;2022-09-09T01:01:27;0.60;;;0.60;;
1799;SDS011;919;48.274;12.292;2022-09-09T01:03:55;0.93;;;0.73;;
1799;SDS011;919;48.274;12.292;2022-09-09T01:06:27;0.77;;;0.77;;
1799;SDS011;919;48.274;12.292;2022-09-09T01:09:08;0.60;;;0.60;;
1799;SDS011;919;48.274;12.292;2022-09-09T01:11:44;0.60;;;0.50;;
1799;SDS011;919;48.274;12.292;2022-09-09T01:14:24;0.73;;;0.40;;
1799;SDS011;919;48.274;12.292;2022-09-09T01:17:02;0.50;;;0.50;;
1799;SDS011;919;48.274;12.292;2022-09-09T01:19:37;1.13;;;0.70;;
1799;SDS011;919;48.274;12.292;2022-09-09T01:22:14;0.67;;;0.67;;
1799;SDS011;919;48.274;12.292;2022-09-09T01:24:52;0.60;;;0.60;;
1799;SDS011;919;48.274;12.292;2022-09-09T01:27:37;0.83;;;0.70;;
1799;SDS011;919;48.274;12.292;2022-09-09T01:30:07;0.67;;;0.67;;
1799;SDS011;919;48.274;12.292;2022-09-09T01:32:37;1.90;;;0.60;;
1799;SDS011;919;48.274;12.292;2022-09-09T01:35:07;0.60;;;0.60;;
1799;SDS011;919;48.274;12.292;2022-09-09T01:37:38;0.97;;;0.80;;
1799;SDS011;919;48.274;12.292;2022-09-09T01:40:06;0.60;;;0.53;;
1799;SDS011;919;48.274;12.292;2022-09-09T01:42:34;0.70;;;0.70;;
1799;SDS011;919;48.274;12.292;2022-09-09T01:45:02;1.10;;;0.80;;
1799;SDS011;919;48.274;12.292;2022-09-09T01:47:31;0.90;;;0.90;;
1799;SDS011;919;48.274;12.292;2022-09-09T01:49:58;1.00;;;1.00;;
1799;SDS011;919;48.274;12.292;2022-09-09T01:52:26;1.23;;;0.97;;
1799;SDS011;919;48.274;12.292;2022-09-09T01:54:53;1.10;;;1.10;;
1799;SDS011;919;48.274;12.292;2022-09-09T01:57:21;0.93;;;0.70;;
1799;SDS011;919;48.274;12.292;2022-09-09T01:59:56;0.70;;;0.70;;
1799;SDS011;919;48.274;12.292;2022-09-09T02:02:32;0.97;;;0.80;;
1799;SDS011;919;48.274;12.292;2022-09-09T02:05:05;0.83;;;0.80;;
1799;SDS011;919;48.274;12.292;2022-09-09T02:07:39;0.93;;;0.93;;
1799;SDS011;919;48.274;12.292;2022-09-09T02:10:09;0.93;;;0.93;;
1799;SDS011;919;48.274;12.292;2022-09-09T02:12:39;0.80;;;0.80;;
1799;SDS011;919;48.274;12.292;2022-09-09T02:15:14;1.60;;;0.93;;
1799;SDS011;919;48.274;12.292;2022-09-09T02:17:46;2.23;;;0.87;;
1799;SDS011;919;48.274;12.292;2022-09-09T02:20:14;1.10;;;1.00;;
1799;SDS011;919;48.274;12.292;2022-09-09T02:22:44;1.10;;;1.10;;
1799;SDS011;919;48.274;12.292;2022-09-09T02:25:15;2.60;;;0.90;;
1799;SDS011;919;48.274;12.292;2022-09-09T02:27:45;0.73;;;0.70;;
1799;SDS011;919;48.274;12.292;2022-09-09T02:30:17;1.70;;;0.90;;
1799;SDS011;919;48.274;12.292;2022-09-09T02:32:45;1.73;;;1.20;;
1799;SDS011;919;48.274;12.292;2022-09-09T02:35:15;2.30;;;1.47;;
1799;SDS011;919;48.274;12.292;2022-09-09T02:37:46;6.00;;;1.50;;
1799;SDS011;919;48.274;12.292;2022-09-09T02:40:13;1.17;;;1.07;;
1799;SDS011;919;48.274;12.292;2022-09-09T02:42:41;1.33;;;1.23;;
1799;SDS011;919;48.274;12.292;2022-09-09T02:45:10;2.73;;;1.23;;
1799;SDS011;919;48.274;12.292;2022-09-09T02:47:43;3.90;;;1.47;;
1799;SDS011;919;48.274;12.292;2022-09-09T02:50:15;1.47;;;1.37;;
1799;SDS011;919;48.274;12.292;2022-09-09T02:52:50;1.40;;;1.30;;
1799;SDS011;919;48.274;12.292;2022-09-09T02:55:29;1.50;;;1.40;;
1799;SDS011;919;48.274;12.292;2022-09-09T02:58:04;2.40;;;1.20;;
1799;SDS011;919;48.274;12.292;2022-09-09T03:00:35;1.40;;;1.30;;
1799;SDS011;919;48.274;12.292;2022-09-09T03:03:04;1.47;;;1.37;;
1799;SDS011;919;48.274;12.292;2022-09-09T03:05:31;1.73;;;1.63;;
1799;SDS011;919;48.274;12.292;2022-09-09T03:07:58;1.67;;;1.57;;
1799;SDS011;919;48.274;12.292;2022-09-09T03:10:25;1.70;;;1.60;;
1799;SDS011;919;48.274;12.292;2022-09-09T03:12:52;1.53;;;1.43;;
1799;SDS011;919;48.274;12.292;2022-09-09T03:15:18;2.03;;;1.60;;
1799;SDS011;919;48.274;12.292;2022-09-09T03:17:46;1.57;;;1.47;;
1799;SDS011;919;48.274;12.292;2022-09-09T03:20:15;1.33;;;1.23;;
1799;SDS011;919;48.274;12.292;2022-09-09T03:22:42;4.50;;;1.20;;
1799;SDS011;919;48.274;12.292;2022-09-09T03:25:10;1.83;;;1.70;;
1799;SDS011;919;48.274;12.292;2022-09-09T03:27:36;4.23;;;1.80;;
1799;SDS011;919;48.274;12.292;2022-09-09T03:30:04;1.80;;;1.70;;
1799;SDS011;919;48.274;12.292;2022-09-09T03:32:31;1.70;;;1.60;;
1799;SDS011;919;48.274;12.292;2022-09-09T03:34:58;2.47;;;1.60;;
1799;SDS011;919;48.274;12.292;2022-09-09T03:37:26;1.90;;;1.80;;
1799;SDS011;919;48.274;12.292;2022-09-09T03:39:53;1.60;;;1.50;;
1799;SDS011;919;48.274;12.292;2022-09-09T03:42:20;1.60;;;1.50;;
1799;SDS011;919;48.274;12.292;2022-09-09T03:44:47;1.67;;;1.33;;
1799;SDS011;919;48.274;12.292;2022-09-09T03:47:15;1.70;;;1.60;;
1799;SDS011;919;48.274;12.292;2022-09-09T03:49:44;1.70;;;1.50;;
1799;SDS011;919;48.274;12.292;2022-09-09T03:52:11;2.67;;;1.80;;
1799;SDS011;919;48.274;12.292;2022-09-09T03:54:39;5.90;;;2.23;;
1799;SDS011;919;48.274;12.292;2022-09-09T03:57:07;1.90;;;1.80;;
1799;SDS011;919;48.274;12.292;2022-09-09T03:59:34;2.13;;;2.00;;
1799;SDS011;919;48.274;12.292;2022-09-09T04:02:01;1.43;;;1.33;;
1799;SDS011;919;48.274;12.292;2022-09-09T04:04:28;1.63;;;1.53;;
1799;SDS011;919;48.274;12.292;2022-09-09T04:06:55;4.30;;;2.07;;
1799;SDS011;919;48.274;12.292;2022-09-09T04:09:22;1.90;;;1.80;;
1799;SDS011;919;48.274;12.292;2022-09-09T04:11:50;1.60;;;1.43;;
1799;SDS011;919;48.274;12.292;2022-09-09T04:14:18;3.30;;;1.83;;
1799;SDS011;919;48.274;12.292;2022-09-09T04:16:44;1.80;;;1.70;;
1799;SDS011;919;48.274;12.292;2022-09-09T04:19:11;2.00;;;1.80;;
1799;SDS011;919;48.274;12.292;2022-09-09T04:21:39;1.70;;;1.60;;
1799;SDS011;919;48.274;12.292;2022-09-09T04:24:07;1.93;;;1.43;;
1799;SDS011;919;48.274;12.292;2022-09-09T04:26:34;1.70;;;1.60;;
1799;SDS011;919;48.274;12.292;2022-09-09T04:29:03;1.80;;;1.60;;
1799;SDS011;919;48.274;12.292;2022-09-09T04:31:32;1.83;;;1.70;;
1799;SDS011;919;48.274;12.292;2022-09-09T04:33:59;4.13;;;2.60;;
1799;SDS011;919;48.274;12.292;2022-09-09T04:36:30;1.80;;;1.70;;
1799;SDS011;919;48.274;12.292;2022-09-09T04:38:57;1.40;;;1.30;;
1799;SDS011;919;48.274;12.292;2022-09-09T04:41:24;1.30;;;1.20;;
1799;SDS011;919;48.274;12.292;2022-09-09T04:43:51;3.33;;;1.50;;
1799;SDS011;919;48.274;12.292;2022-09-09T04:46:19;4.00;;;1.47;;
1799;SDS011;919;48.274;12.292;2022-09-09T04:48:48;1.53;;;1.43;;
1799;SDS011;919;48.274;12.292;2022-09-09T04:51:15;1.90;;;1.67;;
1799;SDS011;919;48.274;12.292;2022-09-09T04:53:42;1.40;;;1.30;;
1799;SDS011;919;48.274;12.292;2022-09-09T04:56:09;1.40;;;1.30;;
1799;SDS011;919;48.274;12.292;2022-09-09T04:58:37;1.70;;;1.60;;
1799;SDS011;919;48.274;12.292;2022-09-09T05:01:07;1.50;;;1.40;;
1799;SDS011;919;48.274;12.292;2022-09-09T05:03:36;1.50;;;1.40;;
1799;SDS011;919;48.274;12.292;2022-09-09T05:06:04;1.53;;;1.30;;
1799;SDS011;919;48.274;12.292;2022-09-09T05:08:33;1.57;;;1.47;;
1799;SDS011;919;48.274;12.292;2022-09-09T05:11:00;1.57;;;1.47;;
1799;SDS011;919;48.274;12.292;2022-09-09T05:13:28;2.17;;;1.60;;
1799;SDS011;919;48.274;12.292;2022-09-09T05:15:57;3.03;;;1.27;;
1799;SDS011;919;48.274;12.292;2022-09-09T05:18:23;1.40;;;1.30;;
1799;SDS011;919;48.274;12.292;2022-09-09T05:20:51;1.50;;;1.40;;
1799;SDS011;919;48.274;12.292;2022-09-09T05:23:18;2.90;;;1.77;;
1799;SDS011;919;48.274;12.292;2022-09-09T05:25:53;1.90;;;1.60;;
1799;SDS011;919;48.274;12.292;2022-09-09T05:28:23;1.50;;;1.40;;
1799;SDS011;919;48.274;12.292;2022-09-09T05:30:57;1.80;;;1.47;;
1799;SDS011;919;48.274;12.292;2022-09-09T05:33:25;5.10;;;2.03;;
1799;SDS011;919;48.274;12.292;2022-09-09T05:35:57;1.70;;;1.60;;
1799;SDS011;919;48.274;12.292;2022-09-09T05:38:26;2.03;;;1.83;;
1799;SDS011;919;48.274;12.292;2022-09-09T05:40:54;1.70;;;1.60;;
1799;SDS011;919;48.274;12.292;2022-09-09T05:43:21;1.57;;;1.47;;
1799;SDS011;919;48.274;12.292;2022-09-09T05:45:57;2.57;;;1.73;;
1799;SDS011;919;48.274;12.292;2022-09-09T05:48:27;1.50;;;1.40;;
1799;SDS011;919;48.274;12.292;2022-09-09T05:50:54;1.60;;;1.50;;
1799;SDS011;919;48.274;12.292;2022-09-09T05:53:22;1.97;;;1.60;;
1799;SDS011;919;48.274;12.292;2022-09-09T05:55:50;2.13;;;1.93;;
1799;SDS011;919;48.274;12.292;2022-09-09T05:58:17;1.90;;;1.70;;
1799;SDS011;919;48.274;12.292;2022-09-09T06:00:44;2.10;;;1.97;;
1799;SDS011;919;48.274;12.292;2022-09-09T06:03:11;5.60;;;2.47;;
1799;SDS011;919;48.274;12.292;2022-09-09T06:05:37;2.60;;;2.40;;
1799;SDS011;919;48.274;12.292;2022-09-09T06:08:04;2.30;;;2.10;;
1799;SDS011;919;48.274;12.292;2022-09-09T06:10:33;1.83;;;1.73;;
1799;SDS011;919;48.274;12.292;2022-09-09T06:13:00;2.03;;;1.93;;
1799;SDS011;919;48.274;12.292;2022-09-09T06:15:27;2.43;;;2.23;;
1799;SDS011;919;48.274;12.292;2022-09-09T06:17:55;2.10;;;2.00;;
1799;SDS011;919;48.274;12.292;2022-09-09T06:20:22;3.83;;;2.20;;
1799;SDS011;919;48.274;12.292;2022-09-09T06:22:49;2.73;;;2.47;;
1799;SDS011;919;48.274;12.292;2022-09-09T06:25:16;2.50;;;2.10;;
1799;SDS011;919;48.274;12.292;2022-09-09T06:27:44;1.90;;;1.80;;
1799;SDS011;919;48.274;12.292;2022-09-09T06:30:14;1.63;;;1.53;;
1799;SDS011;919;48.274;12.292;2022-09-09T06:32:42;2.50;;;2.20;;
1799;SDS011;919;48.274;12.292;2022-09-09T06:35:08;2.23;;;1.90;;
1799;SDS011;919;48.274;12.292;2022-09-09T06:37:35;2.80;;;2.30;;
1799;SDS011;919;48.274;12.292;2022-09-09T06:40:02;2.10;;;1.90;;
1799;SDS011;919;48.274;12.292;2022-09-09T06:42:29;2.40;;;2.20;;
1799;SDS011;919;48.274;12.292;2022-09-09T06:44:58;2.53;;;2.20;;
1799;SDS011;919;48.274;12.292;2022-09-09T06:47:24;2.23;;;2.03;;
1799;SDS011;919;48.274;12.292;2022-09-09T06:49:52;2.40;;;2.20;;
1799;SDS011;919;48.274;12.292;2022-09-09T06:52:18;2.63;;;2.43;;
1799;SDS011;919;48.274;12.292;2022-09-09T06:54:45;2.03;;;1.80;;
1799;SDS011;919;48.274;12.292;2022-09-09T06:57:12;2.50;;;2.30;;
1799;SDS011;919;48.274;12.292;2022-09-09T06:59:38;2.80;;;2.30;;
1799;SDS011;919;48.274;12.292;2022-09-09T07:02:07;2.63;;;1.73;;
1799;SDS011;919;48.274;12.292;2022-09-09T07:04:34;3.00;;;2.70;;
1799;SDS011;919;48.274;12.292;2022-09-09T07:07:02;3.50;;;2.73;;
1799;SDS011;919;48.274;12.292;2022-09-09T07:09:29;4.20;;;2.50;;
1799;SDS011;919;48.274;12.292;2022-09-09T07:11:56;3.00;;;2.17;;
1799;SDS011;919;48.274;12.292;2022-09-09T07:14:24;3.63;;;2.60;;
1799;SDS011;919;48.274;12.292;2022-09-09T07:16:52;5.70;;;2.40;;
1799;SDS011;919;48.274;12.292;2022-09-09T07:19:20;2.00;;;1.90;;
1799;SDS011;919;48.274;12.292;2022-09-09T07:21:46;3.07;;;2.37;;
1799;SDS011;919;48.274;12.292;2022-09-09T07:24:13;3.73;;;2.37;;
1799;SDS011;919;48.274;12.292;2022-09-09T07:26:40;2.50;;;2.30;;
1799;SDS011;919;48.274;12.292;2022-09-09T07:29:07;3.30;;;2.23;;
1799;SDS011;919;48.274;12.292;2022-09-09T07:31:35;3.20;;;2.10;;
1799;SDS011;919;48.274;12.292;2022-09-09T07:34:03;5.40;;;2.67;;
1799;SDS011;919;48.274;12.292;2022-09-09T07:36:32;4.43;;;2.20;;
1799;SDS011;919;48.274;12.292;2022-09-09T07:39:01;2.47;;;2.27;;
1799;SDS011;919;48.274;12.292;2022-09-09T07:41:32;2.80;;;2.60;;
1799;SDS011;919;48.274;12.292;2022-09-09T07:44:03;2.40;;;2.20;;
1799;SDS011;919;48.274;12.292;2022-09-09T07:46:31;3.90;;;2.90;;
1799;SDS011;919;48.274;12.292;2022-09-09T07:48:59;2.63;;;1.77;;
1799;SDS011;919;48.274;12.292;2022-09-09T07:51:27;2.77;;;1.77;;
1799;SDS011;919;48.274;12.292;2022-09-09T07:53:57;2.17;;;1.63;;
1799;SDS011;919;48.274;12.292;2022-09-09T07:56:27;1.90;;;1.73;;
1799;SDS011;919;48.274;12.292;2022-09-09T07:58:55;2.10;;;1.87;;
1799;SDS011;919;48.274;12.292;2022-09-09T08:01:24;4.03;;;2.53;;
1799;SDS011;919;48.274;12.292;2022-09-09T08:03:53;2.30;;;2.10;;
1799;SDS011;919;48.274;12.292;2022-09-09T08:06:23;2.93;;;2.17;;
1799;SDS011;919;48.274;12.292;2022-09-09T08:08:52;3.60;;;2.37;;
1799;SDS011;919;48.274;12.292;2022-09-09T08:11:21;3.00;;;2.10;;
1799;SDS011;919;48.274;12.292;2022-09-09T08:13:49;2.10;;;1.93;;
1799;SDS011;919;48.274;12.292;2022-09-09T08:16:18;3.00;;;2.80;;
1799;SDS011;919;48.274;12.292;2022-09-09T08:18:46;2.77;;;2.00;;
1799;SDS011;919;48.274;12.292;2022-09-09T08:21:15;2.13;;;1.43;;
1799;SDS011;919;48.274;12.292;2022-09-09T08:23:43;1.70;;;1.60;;
1799;SDS011;919;48.274;12.292;2022-09-09T08:26:12;3.17;;;2.07;;
1799;SDS011;919;48.274;12.292;2022-09-09T08:28:42;3.10;;;2.00;;
1799;SDS011;919;48.274;12.292;2022-09-09T08:31:11;4.27;;;1.80;;
1799;SDS011;919;48.274;12.292;2022-09-09T08:33:39;1.77;;;1.63;;
1799;SDS011;919;48.274;12.292;2022-09-09T08:36:08;2.73;;;1.77;;
1799;SDS011;919;48.274;12.292;2022-09-09T08:38:36;2.17;;;1.73;;
1799;SDS011;919;48.274;12.292;2022-09-09T08:41:07;1.67;;;1.57;;
1799;SDS011;919;48.274;12.292;2022-09-09T08:43:47;1.27;;;1.17;;
1799;SDS011;919;48.274;12.292;2022-09-09T08:46:18;1.60;;;1.50;;
1799;SDS011;919;48.274;12.292;2022-09-09T08:48:52;1.60;;;1.50;;
1799;SDS011;919;48.274;12.292;2022-09-09T08:51:23;1.53;;;1.43;;
1799;SDS011;919;48.274;12.292;2022-09-09T08:53:53;1.53;;;1.43;;
1799;SDS011;919;48.274;12.292;2022-09-09T08:56:24;2.10;;;2.00;;
1799;SDS011;919;48.274;12.292;2022-09-09T08:58:54;1.97;;;1.77;;
1799;SDS011;919;48.274;12.292;2022-09-09T09:01:26;3.60;;;1.77;;
1799;SDS011;919;48.274;12.292;2022-09-09T09:04:21;1.80;;;1.70;;
1799;SDS011;919;48.274;12.292;2022-09-09T09:07:06;1.30;;;1.30;;
1799;SDS011;919;48.274;12.292;2022-09-09T09:09:42;1.80;;;1.67;;
1799;SDS011;919;48.274;12.292;2022-09-09T09:12:23;1.97;;;1.80;;
1799;SDS011;919;48.274;12.292;2022-09-09T09:14:55;2.20;;;2.00;;
1799;SDS011;919;48.274;12.292;2022-09-09T09:17:23;3.00;;;1.63;;
1799;SDS011;919;48.274;12.292;2022-09-09T09:19:52;1.40;;;1.30;;
1799;SDS011;919;48.274;12.292;2022-09-09T09:22:20;2.40;;;1.93;;
1799;SDS011;919;48.274;12.292;2022-09-09T09:24:51;2.60;;;2.00;;
1799;SDS011;919;48.274;12.292;2022-09-09T09:27:21;1.80;;;1.70;;
1799;SDS011;919;48.274;12.292;2022-09-09T09:29:58;2.80;;;2.03;;
1799;SDS011;919;48.274;12.292;2022-09-09T09:32:28;1.87;;;1.77;;
1799;SDS011;919;48.274;12.292;2022-09-09T09:34:59;1.70;;;1.60;;
1799;SDS011;919;48.274;12.292;2022-09-09T09:37:31;2.27;;;2.07;;
1799;SDS011;919;48.274;12.292;2022-09-09T09:40:07;3.53;;;1.80;;
1799;SDS011;919;48.274;12.292;2022-09-09T09:42:35;2.30;;;2.20;;
1799;SDS011;919;48.274;12.292;2022-09-09T09:45:14;2.93;;;1.60;;
1799;SDS011;919;48.274;12.292;2022-09-09T09:47:46;1.90;;;1.70;;
1799;SDS011;919;48.274;12.292;2022-09-09T09:50:24;1.97;;;1.50;;
1799;SDS011;919;48.274;12.292;2022-09-09T09:52:54;1.70;;;1.60;;
1799;SDS011;919;48.274;12.292;2022-09-09T09:55:23;1.40;;;1.30;;
1799;SDS011;919;48.274;12.292;2022-09-09T09:57:50;1.90;;;1.80;;
1799;SDS011;919;48.274;12.292;2022-09-09T10:00:20;2.13;;;2.03;;
1799;SDS011;919;48.274;12.292;2022-09-09T10:02:49;1.80;;;1.70;;
1799;SDS011;919;48.274;12.292;2022-09-09T10:05:19;1.77;;;1.67;;
1799;SDS011;919;48.274;12.292;2022-09-09T10:07:57;1.43;;;1.30;;
1799;SDS011;919;48.274;12.292;2022-09-09T10:10:29;1.73;;;1.63;;
1799;SDS011;919;48.274;12.292;2022-09-09T10:13:09;1.87;;;1.70;;
1799;SDS011;919;48.274;12.292;2022-09-09T10:15:44;1.80;;;1.70;;
1799;SDS011;919;48.274;12.292;2022-09-09T10:18:33;1.63;;;1.53;;
1799;SDS011;919;48.274;12.292;2022-09-09T10:21:11;1.60;;;1.50;;
1799;SDS011;919;48.274;12.292;2022-09-09T10:23:52;1.57;;;1.30;;
1799;SDS011;919;48.274;12.292;2022-09-09T10:26:33;1.60;;;1.50;;
1799;SDS011;919;48.274;12.292;2022-09-09T10:29:16;1.80;;;1.70;;
1799;SDS011;919;48.274;12.292;2022-09-09T10:32:02;2.20;;;1.97;;
1799;SDS011;919;48.274;12.292;2022-09-09T10:34:39;1.20;;;1.20;;
1799;SDS011;919;48.274;12.292;2022-09-09T10:37:25;1.43;;;1.33;;
1799;SDS011;919;48.274;12.292;2022-09-09T10:40:05;2.10;;;1.50;;
1799;SDS011;919;48.274;12.292;2022-09-09T10:42:44;1.83;;;1.73;;
1799;SDS011;919;48.274;12.292;2022-09-09T10:45:15;1.60;;;1.50;;
1799;SDS011;919;48.274;12.292;2022-09-09T10:47:52;3.63;;;2.00;;
1799;SDS011;919;48.274;12.292;2022-09-09T10:50:37;2.40;;;2.20;;
1799;SDS011;919;48.274;12.292;2022-09-09T10:53:18;2.07;;;1.97;;
1799;SDS011;919;48.274;12.292;2022-09-09T10:55:53;2.10;;;2.00;;
1799;SDS011;919;48.274;12.292;2022-09-09T10:58:26;2.40;;;2.20;;
1799;SDS011;919;48.274;12.292;2022-09-09T11:00:58;2.97;;;2.50;;
1799;SDS011;919;48.274;12.292;2022-09-09T11:03:30;2.23;;;2.03;;
1799;SDS011;919;48.274;12.292;2022-09-09T11:05:59;3.00;;;2.00;;
1799;SDS011;919;48.274;12.292;2022-09-09T11:08:31;1.40;;;1.30;;
1799;SDS011;919;48.274;12.292;2022-09-09T11:11:02;3.73;;;2.00;;
1799;SDS011;919;48.274;12.292;2022-09-09T11:13:31;2.20;;;1.87;;
1799;SDS011;919;48.274;12.292;2022-09-09T11:16:05;1.73;;;1.60;;
1799;SDS011;919;48.274;12.292;2022-09-09T11:18:47;1.70;;;1.60;;
1799;SDS011;919;48.274;12.292;2022-09-09T11:21:15;2.37;;;2.17;;
1799;SDS011;919;48.274;12.292;2022-09-09T11:23:47;2.00;;;1.87;;
1799;SDS011;919;48.274;12.292;2022-09-09T11:26:21;1.50;;;1.40;;
1799;SDS011;919;48.274;12.292;2022-09-09T11:28:59;1.83;;;1.63;;
1799;SDS011;919;48.274;12.292;2022-09-09T11:31:42;2.17;;;1.60;;
1799;SDS011;919;48.274;12.292;2022-09-09T11:34:16;2.77;;;1.63;;
1799;SDS011;919;48.274;12.292;2022-09-09T11:36:56;1.53;;;1.43;;
1799;SDS011;919;48.274;12.292;2022-09-09T11:39:59;2.50;;;1.50;;
1799;SDS011;919;48.274;12.292;2022-09-09T11:42:39;1.47;;;1.13;;
1799;SDS011;919;48.274;12.292;2022-09-09T11:45:19;1.60;;;1.50;;
1799;SDS011;919;48.274;12.292;2022-09-09T11:47:51;3.50;;;2.03;;
1799;SDS011;919;48.274;12.292;2022-09-09T11:53:16;3.10;;;1.70;;
1799;SDS011;919;48.274;12.292;2022-09-09T11:55:59;1.90;;;1.80;;
1799;SDS011;919;48.274;12.292;2022-09-09T11:58:31;2.00;;;1.40;;
1799;SDS011;919;48.274;12.292;2022-09-09T12:01:15;1.70;;;1.57;;
1799;SDS011;919;48.274;12.292;2022-09-09T12:04:09;1.60;;;1.50;;
1799;SDS011;919;48.274;12.292;2022-09-09T12:06:45;1.63;;;1.53;;
1799;SDS011;919;48.274;12.292;2022-09-09T12:09:17;3.47;;;2.00;;
1799;SDS011;919;48.274;12.292;2022-09-09T12:11:51;4.13;;;1.63;;
1799;SDS011;919;48.274;12.292;2022-09-09T12:14:21;2.43;;;1.90;;
1799;SDS011;919;48.274;12.292;2022-09-09T12:17:08;1.80;;;1.50;;
1799;SDS011;919;48.274;12.292;2022-09-09T12:19:35;1.83;;;1.70;;
1799;SDS011;919;48.274;12.292;2022-09-09T12:22:04;2.90;;;2.03;;
1799;SDS011;919;48.274;12.292;2022-09-09T12:24:41;1.80;;;1.70;;
1799;SDS011;919;48.274;12.292;2022-09-09T12:27:15;4.40;;;1.97;;
1799;SDS011;919;48.274;12.292;2022-09-09T12:29:47;1.47;;;1.37;;
1799;SDS011;919;48.274;12.292;2022-09-09T12:32:22;3.23;;;2.00;;
1799;SDS011;919;48.274;12.292;2022-09-09T12:34:52;1.83;;;1.40;;
1799;SDS011;919;48.274;12.292;2022-09-09T12:37:27;1.97;;;1.53;;
1799;SDS011;919;48.274;12.292;2022-09-09T12:39:59;1.23;;;1.17;;
1799;SDS011;919;48.274;12.292;2022-09-09T12:42:28;1.77;;;1.20;;
1799;SDS011;919;48.274;12.292;2022-09-09T12:44:56;1.57;;;0.93;;
1799;SDS011;919;48.274;12.292;2022-09-09T12:47:26;1.03;;;0.90;;
1799;SDS011;919;48.274;12.292;2022-09-09T12:50:01;2.00;;;1.23;;
1799;SDS011;919;48.274;12.292;2022-09-09T12:52:30;1.10;;;1.10;;
1799;SDS011;919;48.274;12.292;2022-09-09T12:54:59;1.93;;;1.00;;
1799;SDS011;919;48.274;12.292;2022-09-09T12:57:30;1.20;;;1.10;;
1799;SDS011;919;48.274;12.292;2022-09-09T13:00:06;0.90;;;0.90;;
1799;SDS011;919;48.274;12.292;2022-09-09T13:02:44;0.80;;;0.80;;
1799;SDS011;919;48.274;12.292;2022-09-09T13:05:13;0.77;;;0.77;;
1799;SDS011;919;48.274;12.292;2022-09-09T13:07:44;1.10;;;0.90;;
1799;SDS011;919;48.274;12.292;2022-09-09T13:10:12;2.10;;;1.00;;
1799;SDS011;919;48.274;12.292;2022-09-09T13:12:40;0.90;;;0.90;;
1799;SDS011;919;48.274;12.292;2022-09-09T13:15:14;1.07;;;0.97;;
1799;SDS011;919;48.274;12.292;2022-09-09T13:17:49;1.33;;;0.90;;
1799;SDS011;919;48.274;12.292;2022-09-09T13:20:21;1.63;;;0.80;;
1799;SDS011;919;48.274;12.292;2022-09-09T13:22:51;0.77;;;0.77;;
1799;SDS011;919;48.274;12.292;2022-09-09T13:25:20;2.13;;;1.00;;
1799;SDS011;919;48.274;12.292;2022-09-09T13:27:58;1.37;;;0.90;;
1799;SDS011;919;48.274;12.292;2022-09-09T13:30:26;1.13;;;0.90;;
1799;SDS011;919;48.274;12.292;2022-09-09T13:33:05;1.00;;;0.90;;
1799;SDS011;919;48.274;12.292;2022-09-09T13:35:45;1.63;;;0.80;;
1799;SDS011;919;48.274;12.292;2022-09-09T13:38:16;1.20;;;0.80;;
1799;SDS011;919;48.274;12.292;2022-09-09T13:40:53;0.67;;;0.60;;
1799;SDS011;919;48.274;12.292;2022-09-09T13:43:23;1.27;;;0.67;;
1799;SDS011;919;48.274;12.292;2022-09-09T13:45:55;0.83;;;0.83;;
1799;SDS011;919;48.274;12.292;2022-09-09T13:48:22;1.30;;;0.90;;
1799;SDS011;919;48.274;12.292;2022-09-09T13:50:54;0.93;;;0.90;;
1799;SDS011;919;48.274;12.292;2022-09-09T13:53:23;1.10;;;1.00;;
1799;SDS011;919;48.274;12.292;2022-09-09T13:55:50;1.10;;;0.80;;
1799;SDS011;919;48.274;12.292;2022-09-09T13:58:17;1.47;;;0.77;;
1799;SDS011;919;48.274;12.292;2022-09-09T14:00:45;0.50;;;0.50;;
1799;SDS011;919;48.274;12.292;2022-09-09T14:03:12;1.23;;;0.90;;
1799;SDS011;919;48.274;12.292;2022-09-09T14:05:39;0.73;;;0.70;;
1799;SDS011;919;48.274;12.292;2022-09-09T14:08:07;1.10;;;1.00;;
1799;SDS011;919;48.274;12.292;2022-09-09T14:10:42;0.50;;;0.50;;
1799;SDS011;919;48.274;12.292;2022-09-09T14:13:09;0.70;;;0.60;;
1799;SDS011;919;48.274;12.292;2022-09-09T14:15:37;5.60;;;0.90;;
1799;SDS011;919;48.274;12.292;2022-09-09T14:18:04;1.17;;;0.80;;
1799;SDS011;919;48.274;12.292;2022-09-09T14:20:31;0.67;;;0.67;;
1799;SDS011;919;48.274;12.292;2022-09-09T14:22:58;1.10;;;1.00;;
1799;SDS011;919;48.274;12.292;2022-09-09T14:25:24;2.20;;;0.90;;
1799;SDS011;919;48.274;12.292;2022-09-09T14:27:53;1.00;;;0.73;;
1799;SDS011;919;48.274;12.292;2022-09-09T14:30:21;0.80;;;0.80;;
1799;SDS011;919;48.274;12.292;2022-09-09T14:32:47;0.93;;;0.80;;
1799;SDS011;919;48.274;12.292;2022-09-09T14:35:14;0.90;;;0.90;;
1799;SDS011;919;48.274;12.292;2022-09-09T14:37:42;1.57;;;1.27;;
1799;SDS011;919;48.274;12.292;2022-09-09T14:40:09;0.80;;;0.73;;
1799;SDS011;919;48.274;12.292;2022-09-09T14:42:37;1.93;;;1.07;;
1799;SDS011;919;48.274;12.292;2022-09-09T14:45:06;2.83;;;1.93;;
1799;SDS011;919;48.274;12.292;2022-09-09T14:47:33;1.70;;;0.77;;
1799;SDS011;919;48.274;12.292;2022-09-09T14:50:00;0.90;;;0.90;;
1799;SDS011;919;48.274;12.292;2022-09-09T14:52:29;3.17;;;1.67;;
1799;SDS011;919;48.274;12.292;2022-09-09T14:54:56;1.23;;;1.13;;
1799;SDS011;919;48.274;12.292;2022-09-09T14:57:23;1.47;;;1.37;;
1799;SDS011;919;48.274;12.292;2022-09-09T14:59:50;1.37;;;1.27;;
1799;SDS011;919;48.274;12.292;2022-09-09T15:02:18;0.97;;;0.97;;
1799;SDS011;919;48.274;12.292;2022-09-09T15:04:44;1.20;;;1.10;;
1799;SDS011;919;48.274;12.292;2022-09-09T15:07:11;0.90;;;0.90;;
1799;SDS011;919;48.274;12.292;2022-09-09T15:09:38;1.60;;;0.80;;
1799;SDS011;919;48.274;12.292;2022-09-09T15:12:05;1.00;;;1.00;;
1799;SDS011;919;48.274;12.292;2022-09-09T15:14:32;3.70;;;2.80;;
1799;SDS011;919;48.274;12.292;2022-09-09T15:17:00;1.00;;;1.00;;
1799;SDS011;919;48.274;12.292;2022-09-09T15:19:28;0.70;;;0.70;;
1799;SDS011;919;48.274;12.292;2022-09-09T15:21:55;1.83;;;0.80;;
1799;SDS011;919;48.274;12.292;2022-09-09T15:24:21;1.33;;;0.90;;
1799;SDS011;919;48.274;12.292;2022-09-09T15:26:48;1.30;;;1.20;;
1799;SDS011;919;48.274;12.292;2022-09-09T15:29:15;1.23;;;0.93;;
1799;SDS011;919;48.274;12.292;2022-09-09T15:31:42;1.00;;;0.90;;
1799;SDS011;919;48.274;12.292;2022-09-09T15:34:09;0.90;;;0.90;;
1799;SDS011;919;48.274;12.292;2022-09-09T15:36:38;0.77;;;0.77;;
1799;SDS011;919;48.274;12.292;2022-09-09T15:39:06;1.97;;;0.87;;
1799;SDS011;919;48.274;12.292;2022-09-09T15:41:34;0.80;;;0.80;;